sensor_id;sensor_type;location;lat;lon;timestamp;P1;durP1;ratioP1;P2;durP2;ratioP2
18405;SDS011;9329;48.720;9.588;2022-07-18T00:00:45;4.80;;;2.50;;
18405;SDS011;9329;48.720;9.588;2022-07-18T00:03:12;4.90;;;2.80;;
18405;SDS011;9329;48.720;9.588;2022-07-18T00:05:39;4.43;;;2.80;;
18405;SDS011;9329;48.720;9.588;2022-07-18T00:08:06;3.95;;;2.80;;
18405;SDS011;9329;48.720;9.588;2022-07-18T00:10:33;3.90;;;2.90;;
18405;SDS011;9329;48.720;9.588;2022-07-18T00:13:00;3.60;;;2.70;;
18405;SDS011;9329;48.720;9.588;2022-07-18T00:15:29;4.50;;;2.22;;
18405;SDS011;9329;48.720;9.588;2022-07-18T00:17:56;3.45;;;2.45;;
18405;SDS011;9329;48.720;9.588;2022-07-18T00:20:23;2.83;;;2.08;;
18405;SDS011;9329;48.720;9.588;2022-07-18T00:22:50;3.55;;;2.70;;
18405;SDS011;9329;48.720;9.588;2022-07-18T00:25:17;4.30;;;2.50;;
18405;SDS011;9329;48.720;9.588;2022-07-18T00:27:44;3.25;;;2.30;;
18405;SDS011;9329;48.720;9.588;2022-07-18T00:30:11;5.13;;;2.30;;
18405;SDS011;9329;48.720;9.588;2022-07-18T00:32:39;4.20;;;2.42;;
18405;SDS011;9329;48.720;9.588;2022-07-18T00:35:07;5.15;;;2.60;;
18405;SDS011;9329;48.720;9.588;2022-07-18T00:37:35;4.05;;;2.53;;
18405;SDS011;9329;48.720;9.588;2022-07-18T00:40:02;3.83;;;2.33;;
18405;SDS011;9329;48.720;9.588;2022-07-18T00:42:30;5.10;;;2.70;;
18405;SDS011;9329;48.720;9.588;2022-07-18T00:44:57;5.40;;;2.40;;
18405;SDS011;9329;48.720;9.588;2022-07-18T00:47:24;5.32;;;2.40;;
18405;SDS011;9329;48.720;9.588;2022-07-18T00:49:52;3.17;;;2.38;;
18405;SDS011;9329;48.720;9.588;2022-07-18T00:52:19;5.03;;;2.60;;
18405;SDS011;9329;48.720;9.588;2022-07-18T00:54:46;3.63;;;2.50;;
18405;SDS011;9329;48.720;9.588;2022-07-18T00:57:13;3.77;;;2.83;;
18405;SDS011;9329;48.720;9.588;2022-07-18T00:59:40;4.45;;;2.92;;
18405;SDS011;9329;48.720;9.588;2022-07-18T01:04:53;4.18;;;2.70;;
18405;SDS011;9329;48.720;9.588;2022-07-18T01:07:20;6.20;;;2.92;;
18405;SDS011;9329;48.720;9.588;2022-07-18T01:09:48;6.10;;;3.00;;
18405;SDS011;9329;48.720;9.588;2022-07-18T01:12:15;4.10;;;2.88;;
18405;SDS011;9329;48.720;9.588;2022-07-18T01:14:42;5.40;;;3.10;;
18405;SDS011;9329;48.720;9.588;2022-07-18T01:17:12;3.30;;;2.90;;
18405;SDS011;9329;48.720;9.588;2022-07-18T01:19:41;3.85;;;2.70;;
18405;SDS011;9329;48.720;9.588;2022-07-18T01:22:09;5.93;;;3.13;;
18405;SDS011;9329;48.720;9.588;2022-07-18T01:24:37;4.63;;;3.05;;
18405;SDS011;9329;48.720;9.588;2022-07-18T01:27:05;7.17;;;3.33;;
18405;SDS011;9329;48.720;9.588;2022-07-18T01:29:32;5.00;;;3.40;;
18405;SDS011;9329;48.720;9.588;2022-07-18T01:32:03;5.67;;;2.97;;
18405;SDS011;9329;48.720;9.588;2022-07-18T01:34:30;5.53;;;3.42;;
18405;SDS011;9329;48.720;9.588;2022-07-18T01:36:58;5.57;;;3.10;;
18405;SDS011;9329;48.720;9.588;2022-07-18T01:39:26;6.00;;;3.03;;
18405;SDS011;9329;48.720;9.588;2022-07-18T01:41:54;6.53;;;3.15;;
18405;SDS011;9329;48.720;9.588;2022-07-18T01:44:22;5.05;;;2.72;;
18405;SDS011;9329;48.720;9.588;2022-07-18T01:46:49;5.13;;;3.30;;
18405;SDS011;9329;48.720;9.588;2022-07-18T01:49:16;4.20;;;3.00;;
18405;SDS011;9329;48.720;9.588;2022-07-18T01:51:44;5.10;;;3.08;;
18405;SDS011;9329;48.720;9.588;2022-07-18T01:54:12;3.83;;;2.87;;
18405;SDS011;9329;48.720;9.588;2022-07-18T01:56:40;4.70;;;2.90;;
18405;SDS011;9329;48.720;9.588;2022-07-18T01:59:07;5.07;;;3.03;;
18405;SDS011;9329;48.720;9.588;2022-07-18T02:01:34;5.60;;;3.17;;
18405;SDS011;9329;48.720;9.588;2022-07-18T02:04:02;8.60;;;2.87;;
18405;SDS011;9329;48.720;9.588;2022-07-18T02:06:29;4.67;;;3.10;;
18405;SDS011;9329;48.720;9.588;2022-07-18T02:08:56;4.30;;;2.85;;
18405;SDS011;9329;48.720;9.588;2022-07-18T02:11:23;4.53;;;3.20;;
18405;SDS011;9329;48.720;9.588;2022-07-18T02:13:51;5.63;;;3.10;;
18405;SDS011;9329;48.720;9.588;2022-07-18T02:16:18;4.77;;;3.50;;
18405;SDS011;9329;48.720;9.588;2022-07-18T02:18:45;4.53;;;3.40;;
18405;SDS011;9329;48.720;9.588;2022-07-18T02:21:12;6.63;;;3.83;;
18405;SDS011;9329;48.720;9.588;2022-07-18T02:23:40;4.33;;;3.50;;
18405;SDS011;9329;48.720;9.588;2022-07-18T02:26:07;4.03;;;3.13;;
18405;SDS011;9329;48.720;9.588;2022-07-18T02:28:34;5.90;;;3.13;;
18405;SDS011;9329;48.720;9.588;2022-07-18T02:31:03;5.37;;;3.10;;
18405;SDS011;9329;48.720;9.588;2022-07-18T02:33:31;6.13;;;2.87;;
18405;SDS011;9329;48.720;9.588;2022-07-18T02:35:59;6.93;;;3.10;;
18405;SDS011;9329;48.720;9.588;2022-07-18T02:38:26;3.93;;;3.00;;
18405;SDS011;9329;48.720;9.588;2022-07-18T02:40:53;3.87;;;3.03;;
18405;SDS011;9329;48.720;9.588;2022-07-18T02:43:20;5.87;;;2.93;;
18405;SDS011;9329;48.720;9.588;2022-07-18T02:45:47;6.07;;;2.73;;
18405;SDS011;9329;48.720;9.588;2022-07-18T02:48:15;6.80;;;3.00;;
18405;SDS011;9329;48.720;9.588;2022-07-18T02:50:42;5.97;;;3.20;;
18405;SDS011;9329;48.720;9.588;2022-07-18T02:53:09;4.53;;;3.57;;
18405;SDS011;9329;48.720;9.588;2022-07-18T02:55:36;4.33;;;3.20;;
18405;SDS011;9329;48.720;9.588;2022-07-18T02:58:03;7.47;;;3.80;;
18405;SDS011;9329;48.720;9.588;2022-07-18T03:00:30;3.93;;;3.27;;
18405;SDS011;9329;48.720;9.588;2022-07-18T03:02:57;5.57;;;3.70;;
18405;SDS011;9329;48.720;9.588;2022-07-18T03:05:26;6.70;;;3.77;;
18405;SDS011;9329;48.720;9.588;2022-07-18T03:07:53;4.20;;;3.07;;
18405;SDS011;9329;48.720;9.588;2022-07-18T03:10:20;4.37;;;3.50;;
18405;SDS011;9329;48.720;9.588;2022-07-18T03:12:47;3.97;;;3.47;;
18405;SDS011;9329;48.720;9.588;2022-07-18T03:15:14;4.90;;;3.20;;
18405;SDS011;9329;48.720;9.588;2022-07-18T03:17:41;4.23;;;3.57;;
18405;SDS011;9329;48.720;9.588;2022-07-18T03:20:08;5.60;;;3.53;;
18405;SDS011;9329;48.720;9.588;2022-07-18T03:22:37;4.28;;;3.25;;
18405;SDS011;9329;48.720;9.588;2022-07-18T03:25:04;4.68;;;3.75;;
18405;SDS011;9329;48.720;9.588;2022-07-18T03:27:32;4.13;;;3.40;;
18405;SDS011;9329;48.720;9.588;2022-07-18T03:29:59;4.75;;;3.40;;
18405;SDS011;9329;48.720;9.588;2022-07-18T03:32:26;4.43;;;3.28;;
18405;SDS011;9329;48.720;9.588;2022-07-18T03:34:53;4.18;;;3.20;;
18405;SDS011;9329;48.720;9.588;2022-07-18T03:37:20;4.03;;;3.40;;
18405;SDS011;9329;48.720;9.588;2022-07-18T03:39:48;6.15;;;3.60;;
18405;SDS011;9329;48.720;9.588;2022-07-18T03:42:15;6.70;;;3.90;;
18405;SDS011;9329;48.720;9.588;2022-07-18T03:44:42;6.20;;;3.80;;
18405;SDS011;9329;48.720;9.588;2022-07-18T03:47:10;6.25;;;3.60;;
18405;SDS011;9329;48.720;9.588;2022-07-18T03:49:37;4.75;;;3.78;;
18405;SDS011;9329;48.720;9.588;2022-07-18T03:52:05;4.83;;;3.43;;
18405;SDS011;9329;48.720;9.588;2022-07-18T03:54:32;6.55;;;3.70;;
18405;SDS011;9329;48.720;9.588;2022-07-18T03:57:00;5.40;;;3.85;;
18405;SDS011;9329;48.720;9.588;2022-07-18T03:59:27;6.43;;;4.00;;
18405;SDS011;9329;48.720;9.588;2022-07-18T04:01:54;5.75;;;4.20;;
18405;SDS011;9329;48.720;9.588;2022-07-18T04:04:21;5.72;;;4.20;;
18405;SDS011;9329;48.720;9.588;2022-07-18T04:06:48;7.10;;;4.30;;
18405;SDS011;9329;48.720;9.588;2022-07-18T04:09:15;4.97;;;4.22;;
18405;SDS011;9329;48.720;9.588;2022-07-18T04:11:42;5.68;;;4.07;;
18405;SDS011;9329;48.720;9.588;2022-07-18T04:14:11;6.07;;;4.50;;
18405;SDS011;9329;48.720;9.588;2022-07-18T04:16:38;4.97;;;3.75;;
18405;SDS011;9329;48.720;9.588;2022-07-18T04:19:05;6.32;;;3.78;;
18405;SDS011;9329;48.720;9.588;2022-07-18T04:21:32;5.78;;;3.70;;
18405;SDS011;9329;48.720;9.588;2022-07-18T04:23:59;4.45;;;3.83;;
18405;SDS011;9329;48.720;9.588;2022-07-18T04:26:26;5.03;;;3.80;;
18405;SDS011;9329;48.720;9.588;2022-07-18T04:28:53;6.03;;;3.80;;
18405;SDS011;9329;48.720;9.588;2022-07-18T04:31:21;6.50;;;3.78;;
18405;SDS011;9329;48.720;9.588;2022-07-18T04:33:48;6.57;;;4.03;;
18405;SDS011;9329;48.720;9.588;2022-07-18T04:36:15;4.80;;;3.47;;
18405;SDS011;9329;48.720;9.588;2022-07-18T04:38:43;4.78;;;3.50;;
18405;SDS011;9329;48.720;9.588;2022-07-18T04:41:10;6.75;;;3.53;;
18405;SDS011;9329;48.720;9.588;2022-07-18T04:43:37;5.93;;;3.63;;
18405;SDS011;9329;48.720;9.588;2022-07-18T04:46:04;6.10;;;3.50;;
18405;SDS011;9329;48.720;9.588;2022-07-18T04:48:33;5.30;;;3.55;;
18405;SDS011;9329;48.720;9.588;2022-07-18T04:51:00;5.82;;;3.75;;
18405;SDS011;9329;48.720;9.588;2022-07-18T04:53:27;6.15;;;3.70;;
18405;SDS011;9329;48.720;9.588;2022-07-18T04:55:54;5.07;;;3.60;;
18405;SDS011;9329;48.720;9.588;2022-07-18T04:58:21;6.15;;;3.85;;
18405;SDS011;9329;48.720;9.588;2022-07-18T05:00:48;4.95;;;3.90;;
18405;SDS011;9329;48.720;9.588;2022-07-18T05:03:15;5.00;;;3.80;;
18405;SDS011;9329;48.720;9.588;2022-07-18T05:05:44;6.97;;;4.10;;
18405;SDS011;9329;48.720;9.588;2022-07-18T05:08:11;9.05;;;3.90;;
18405;SDS011;9329;48.720;9.588;2022-07-18T05:10:39;5.18;;;3.70;;
18405;SDS011;9329;48.720;9.588;2022-07-18T05:13:06;5.68;;;3.47;;
18405;SDS011;9329;48.720;9.588;2022-07-18T05:15:33;7.27;;;4.00;;
18405;SDS011;9329;48.720;9.588;2022-07-18T05:18:00;8.60;;;4.10;;
18405;SDS011;9329;48.720;9.588;2022-07-18T05:20:28;5.55;;;4.07;;
18405;SDS011;9329;48.720;9.588;2022-07-18T05:22:56;6.05;;;3.88;;
18405;SDS011;9329;48.720;9.588;2022-07-18T05:25:23;8.80;;;3.90;;
18405;SDS011;9329;48.720;9.588;2022-07-18T05:27:51;7.87;;;4.20;;
18405;SDS011;9329;48.720;9.588;2022-07-18T05:30:18;7.80;;;3.97;;
18405;SDS011;9329;48.720;9.588;2022-07-18T05:32:45;10.63;;;4.20;;
18405;SDS011;9329;48.720;9.588;2022-07-18T05:35:13;7.50;;;3.40;;
18405;SDS011;9329;48.720;9.588;2022-07-18T05:37:40;9.60;;;3.97;;
18405;SDS011;9329;48.720;9.588;2022-07-18T05:40:10;7.10;;;3.37;;
18405;SDS011;9329;48.720;9.588;2022-07-18T05:42:39;7.97;;;3.30;;
18405;SDS011;9329;48.720;9.588;2022-07-18T05:45:07;6.57;;;3.10;;
18405;SDS011;9329;48.720;9.588;2022-07-18T05:47:35;4.40;;;3.40;;
18405;SDS011;9329;48.720;9.588;2022-07-18T05:50:02;9.20;;;3.23;;
18405;SDS011;9329;48.720;9.588;2022-07-18T05:52:31;5.83;;;2.80;;
18405;SDS011;9329;48.720;9.588;2022-07-18T05:54:58;5.73;;;2.80;;
18405;SDS011;9329;48.720;9.588;2022-07-18T05:57:27;6.17;;;3.07;;
18405;SDS011;9329;48.720;9.588;2022-07-18T06:12:09;9.57;;;3.23;;
18405;SDS011;9329;48.720;9.588;2022-07-18T06:14:37;5.10;;;3.30;;
18405;SDS011;9329;48.720;9.588;2022-07-18T06:17:05;4.10;;;2.97;;
18405;SDS011;9329;48.720;9.588;2022-07-18T06:19:32;6.20;;;2.80;;
18405;SDS011;9329;48.720;9.588;2022-07-18T06:34:15;7.80;;;3.13;;
18405;SDS011;9329;48.720;9.588;2022-07-18T06:36:42;9.73;;;3.07;;
18405;SDS011;9329;48.720;9.588;2022-07-18T06:39:09;5.53;;;3.10;;
18405;SDS011;9329;48.720;9.588;2022-07-18T06:41:37;8.90;;;2.70;;
18405;SDS011;9329;48.720;9.588;2022-07-18T06:44:11;8.43;;;3.10;;
18405;SDS011;9329;48.720;9.588;2022-07-18T06:46:39;7.17;;;2.97;;
18405;SDS011;9329;48.720;9.588;2022-07-18T06:49:07;7.40;;;3.00;;
18405;SDS011;9329;48.720;9.588;2022-07-18T06:51:34;4.67;;;3.27;;
18405;SDS011;9329;48.720;9.588;2022-07-18T06:54:02;5.33;;;3.33;;
18405;SDS011;9329;48.720;9.588;2022-07-18T06:56:29;8.03;;;3.20;;
18405;SDS011;9329;48.720;9.588;2022-07-18T06:58:56;8.30;;;3.30;;
18405;SDS011;9329;48.720;9.588;2022-07-18T07:01:23;8.13;;;3.17;;
18405;SDS011;9329;48.720;9.588;2022-07-18T07:03:50;6.67;;;2.87;;
18405;SDS011;9329;48.720;9.588;2022-07-18T07:06:19;5.17;;;2.93;;
18405;SDS011;9329;48.720;9.588;2022-07-18T07:08:46;4.60;;;2.80;;
18405;SDS011;9329;48.720;9.588;2022-07-18T07:11:13;5.70;;;2.70;;
18405;SDS011;9329;48.720;9.588;2022-07-18T07:13:40;5.57;;;2.67;;
18405;SDS011;9329;48.720;9.588;2022-07-18T07:16:07;4.93;;;2.33;;
18405;SDS011;9329;48.720;9.588;2022-07-18T07:18:34;4.97;;;2.37;;
18405;SDS011;9329;48.720;9.588;2022-07-18T07:21:01;6.43;;;2.33;;
18405;SDS011;9329;48.720;9.588;2022-07-18T07:23:30;4.20;;;2.20;;
18405;SDS011;9329;48.720;9.588;2022-07-18T07:25:57;5.45;;;2.35;;
18405;SDS011;9329;48.720;9.588;2022-07-18T07:28:24;4.75;;;2.20;;
18405;SDS011;9329;48.720;9.588;2022-07-18T07:30:51;5.18;;;2.20;;
18405;SDS011;9329;48.720;9.588;2022-07-18T07:33:18;7.82;;;2.25;;
18405;SDS011;9329;48.720;9.588;2022-07-18T07:35:45;4.30;;;2.08;;
18405;SDS011;9329;48.720;9.588;2022-07-18T07:38:12;4.20;;;2.30;;
18405;SDS011;9329;48.720;9.588;2022-07-18T07:40:45;4.32;;;2.20;;
18405;SDS011;9329;48.720;9.588;2022-07-18T07:43:13;3.95;;;2.00;;
18405;SDS011;9329;48.720;9.588;2022-07-18T07:45:42;6.32;;;2.10;;
18405;SDS011;9329;48.720;9.588;2022-07-18T07:48:11;5.75;;;2.00;;
18405;SDS011;9329;48.720;9.588;2022-07-18T07:50:39;3.58;;;2.00;;
18405;SDS011;9329;48.720;9.588;2022-07-18T07:53:06;4.20;;;2.10;;
18405;SDS011;9329;48.720;9.588;2022-07-18T07:55:33;6.05;;;2.00;;
18405;SDS011;9329;48.720;9.588;2022-07-18T07:58:02;6.10;;;1.90;;
18405;SDS011;9329;48.720;9.588;2022-07-18T08:00:30;6.10;;;1.98;;
18405;SDS011;9329;48.720;9.588;2022-07-18T08:02:58;3.45;;;2.00;;
18405;SDS011;9329;48.720;9.588;2022-07-18T08:05:27;5.37;;;2.10;;
18405;SDS011;9329;48.720;9.588;2022-07-18T08:07:55;4.95;;;2.15;;
18405;SDS011;9329;48.720;9.588;2022-07-18T08:10:22;4.57;;;1.90;;
18405;SDS011;9329;48.720;9.588;2022-07-18T08:12:50;6.45;;;2.25;;
18405;SDS011;9329;48.720;9.588;2022-07-18T08:15:18;4.15;;;2.00;;
18405;SDS011;9329;48.720;9.588;2022-07-18T08:17:45;5.60;;;1.95;;
18405;SDS011;9329;48.720;9.588;2022-07-18T08:20:13;4.00;;;1.90;;
18405;SDS011;9329;48.720;9.588;2022-07-18T08:22:51;4.75;;;2.10;;
18405;SDS011;9329;48.720;9.588;2022-07-18T08:25:22;4.35;;;1.77;;
18405;SDS011;9329;48.720;9.588;2022-07-18T08:27:50;3.88;;;1.73;;
18405;SDS011;9329;48.720;9.588;2022-07-18T08:30:19;4.63;;;1.80;;
18405;SDS011;9329;48.720;9.588;2022-07-18T08:32:47;4.85;;;1.90;;
18405;SDS011;9329;48.720;9.588;2022-07-18T08:35:14;4.97;;;2.00;;
18405;SDS011;9329;48.720;9.588;2022-07-18T08:37:42;4.90;;;2.10;;
18405;SDS011;9329;48.720;9.588;2022-07-18T08:40:11;2.88;;;1.75;;
18405;SDS011;9329;48.720;9.588;2022-07-18T08:42:38;5.18;;;1.90;;
18405;SDS011;9329;48.720;9.588;2022-07-18T08:45:06;6.57;;;2.50;;
18405;SDS011;9329;48.720;9.588;2022-07-18T08:47:36;5.25;;;2.17;;
18405;SDS011;9329;48.720;9.588;2022-07-18T08:50:03;6.35;;;1.98;;
18405;SDS011;9329;48.720;9.588;2022-07-18T08:52:31;14.18;;;2.63;;
18405;SDS011;9329;48.720;9.588;2022-07-18T08:55:01;6.55;;;1.90;;
18405;SDS011;9329;48.720;9.588;2022-07-18T08:57:29;4.30;;;1.63;;
18405;SDS011;9329;48.720;9.588;2022-07-18T08:59:56;3.20;;;1.80;;
18405;SDS011;9329;48.720;9.588;2022-07-18T09:02:23;3.20;;;1.53;;
18405;SDS011;9329;48.720;9.588;2022-07-18T09:04:53;4.57;;;1.80;;
18405;SDS011;9329;48.720;9.588;2022-07-18T09:07:24;4.28;;;1.65;;
18405;SDS011;9329;48.720;9.588;2022-07-18T09:09:55;3.47;;;1.70;;
18405;SDS011;9329;48.720;9.588;2022-07-18T09:12:23;3.78;;;1.77;;
18405;SDS011;9329;48.720;9.588;2022-07-18T09:14:51;5.40;;;1.90;;
18405;SDS011;9329;48.720;9.588;2022-07-18T09:17:20;5.27;;;1.70;;
18405;SDS011;9329;48.720;9.588;2022-07-18T09:20:00;2.60;;;1.70;;
18405;SDS011;9329;48.720;9.588;2022-07-18T09:22:30;3.05;;;1.58;;
18405;SDS011;9329;48.720;9.588;2022-07-18T09:24:58;2.88;;;1.55;;
18405;SDS011;9329;48.720;9.588;2022-07-18T09:27:29;4.13;;;1.55;;
18405;SDS011;9329;48.720;9.588;2022-07-18T09:32:46;3.38;;;1.55;;
18405;SDS011;9329;48.720;9.588;2022-07-18T09:35:17;2.35;;;1.25;;
18405;SDS011;9329;48.720;9.588;2022-07-18T09:37:57;3.35;;;1.40;;
18405;SDS011;9329;48.720;9.588;2022-07-18T09:40:27;4.20;;;1.50;;
18405;SDS011;9329;48.720;9.588;2022-07-18T09:42:56;2.83;;;1.50;;
18405;SDS011;9329;48.720;9.588;2022-07-18T09:45:26;2.30;;;1.40;;
18405;SDS011;9329;48.720;9.588;2022-07-18T09:47:56;2.25;;;1.40;;
18405;SDS011;9329;48.720;9.588;2022-07-18T09:50:27;2.28;;;1.40;;
18405;SDS011;9329;48.720;9.588;2022-07-18T09:53:06;10.13;;;5.20;;
18405;SDS011;9329;48.720;9.588;2022-07-18T09:55:38;4.30;;;2.10;;
18405;SDS011;9329;48.720;9.588;2022-07-18T09:58:09;3.10;;;1.50;;
18405;SDS011;9329;48.720;9.588;2022-07-18T10:00:36;4.27;;;1.50;;
18405;SDS011;9329;48.720;9.588;2022-07-18T10:03:05;4.18;;;1.65;;
18405;SDS011;9329;48.720;9.588;2022-07-18T10:05:34;3.78;;;1.45;;
18405;SDS011;9329;48.720;9.588;2022-07-18T10:08:03;2.75;;;1.30;;
18405;SDS011;9329;48.720;9.588;2022-07-18T10:10:32;2.80;;;1.30;;
18405;SDS011;9329;48.720;9.588;2022-07-18T10:13:00;4.35;;;1.40;;
18405;SDS011;9329;48.720;9.588;2022-07-18T10:15:30;2.08;;;1.52;;
18405;SDS011;9329;48.720;9.588;2022-07-18T10:17:58;2.70;;;1.60;;
18405;SDS011;9329;48.720;9.588;2022-07-18T10:20:27;3.03;;;1.50;;
18405;SDS011;9329;48.720;9.588;2022-07-18T10:22:59;2.30;;;1.30;;
18405;SDS011;9329;48.720;9.588;2022-07-18T10:25:33;2.78;;;1.40;;
18405;SDS011;9329;48.720;9.588;2022-07-18T10:28:03;3.65;;;1.40;;
18405;SDS011;9329;48.720;9.588;2022-07-18T10:30:34;2.10;;;1.50;;
18405;SDS011;9329;48.720;9.588;2022-07-18T10:33:03;2.70;;;1.40;;
18405;SDS011;9329;48.720;9.588;2022-07-18T10:38:28;2.58;;;1.50;;
18405;SDS011;9329;48.720;9.588;2022-07-18T10:41:05;4.75;;;1.40;;
18405;SDS011;9329;48.720;9.588;2022-07-18T10:43:44;2.80;;;1.40;;
18405;SDS011;9329;48.720;9.588;2022-07-18T10:46:11;3.67;;;1.40;;
18405;SDS011;9329;48.720;9.588;2022-07-18T10:48:49;3.75;;;1.58;;
18405;SDS011;9329;48.720;9.588;2022-07-18T10:51:34;3.92;;;1.50;;
18405;SDS011;9329;48.720;9.588;2022-07-18T10:54:06;3.63;;;1.30;;
18405;SDS011;9329;48.720;9.588;2022-07-18T11:02:31;3.20;;;1.20;;
18405;SDS011;9329;48.720;9.588;2022-07-18T11:04:59;3.22;;;1.45;;
18405;SDS011;9329;48.720;9.588;2022-07-18T11:07:26;2.40;;;1.23;;
18405;SDS011;9329;48.720;9.588;2022-07-18T11:09:55;2.42;;;1.27;;
18405;SDS011;9329;48.720;9.588;2022-07-18T11:12:23;2.40;;;1.38;;
18405;SDS011;9329;48.720;9.588;2022-07-18T11:18:01;3.60;;;2.00;;
18405;SDS011;9329;48.720;9.588;2022-07-18T11:20:34;3.67;;;1.50;;
18405;SDS011;9329;48.720;9.588;2022-07-18T11:23:04;1.63;;;1.20;;
18405;SDS011;9329;48.720;9.588;2022-07-18T11:25:41;2.15;;;1.40;;
18405;SDS011;9329;48.720;9.588;2022-07-18T11:28:08;2.92;;;1.13;;
18405;SDS011;9329;48.720;9.588;2022-07-18T11:30:36;3.60;;;1.40;;
18405;SDS011;9329;48.720;9.588;2022-07-18T11:33:04;2.40;;;1.30;;
18405;SDS011;9329;48.720;9.588;2022-07-18T11:35:32;2.42;;;1.30;;
18405;SDS011;9329;48.720;9.588;2022-07-18T11:38:03;3.60;;;1.30;;
18405;SDS011;9329;48.720;9.588;2022-07-18T11:40:31;2.55;;;1.40;;
18405;SDS011;9329;48.720;9.588;2022-07-18T11:43:00;1.40;;;1.13;;
18405;SDS011;9329;48.720;9.588;2022-07-18T11:45:27;1.98;;;1.13;;
18405;SDS011;9329;48.720;9.588;2022-07-18T11:47:54;3.50;;;1.30;;
18405;SDS011;9329;48.720;9.588;2022-07-18T11:50:33;3.53;;;1.10;;
18405;SDS011;9329;48.720;9.588;2022-07-18T11:53:01;1.70;;;1.20;;
18405;SDS011;9329;48.720;9.588;2022-07-18T11:55:32;2.30;;;1.40;;
18405;SDS011;9329;48.720;9.588;2022-07-18T11:58:06;3.30;;;1.42;;
18405;SDS011;9329;48.720;9.588;2022-07-18T12:00:34;5.28;;;1.40;;
18405;SDS011;9329;48.720;9.588;2022-07-18T12:03:06;2.03;;;1.10;;
18405;SDS011;9329;48.720;9.588;2022-07-18T12:05:35;2.43;;;1.30;;
18405;SDS011;9329;48.720;9.588;2022-07-18T12:11:04;2.38;;;1.20;;
18405;SDS011;9329;48.720;9.588;2022-07-18T12:13:46;4.10;;;1.95;;
18405;SDS011;9329;48.720;9.588;2022-07-18T12:16:25;5.53;;;1.70;;
18405;SDS011;9329;48.720;9.588;2022-07-18T12:18:57;4.13;;;1.88;;
18405;SDS011;9329;48.720;9.588;2022-07-18T12:21:40;2.80;;;1.50;;
18405;SDS011;9329;48.720;9.588;2022-07-18T12:24:22;1.87;;;1.03;;
18405;SDS011;9329;48.720;9.588;2022-07-18T12:27:14;2.88;;;1.00;;
18405;SDS011;9329;48.720;9.588;2022-07-18T12:30:03;2.65;;;1.00;;
18405;SDS011;9329;48.720;9.588;2022-07-18T12:32:37;2.25;;;0.82;;
18405;SDS011;9329;48.720;9.588;2022-07-18T12:35:10;1.35;;;0.90;;
18405;SDS011;9329;48.720;9.588;2022-07-18T12:37:39;1.40;;;0.80;;
18405;SDS011;9329;48.720;9.588;2022-07-18T12:40:07;4.30;;;1.00;;
18405;SDS011;9329;48.720;9.588;2022-07-18T12:42:36;2.77;;;0.80;;
18405;SDS011;9329;48.720;9.588;2022-07-18T12:45:07;3.10;;;0.80;;
18405;SDS011;9329;48.720;9.588;2022-07-18T12:47:35;2.53;;;0.90;;
18405;SDS011;9329;48.720;9.588;2022-07-18T12:50:02;1.70;;;0.75;;
18405;SDS011;9329;48.720;9.588;2022-07-18T12:52:30;2.65;;;0.70;;
18405;SDS011;9329;48.720;9.588;2022-07-18T12:54:57;2.03;;;0.80;;
18405;SDS011;9329;48.720;9.588;2022-07-18T12:57:27;5.30;;;0.80;;
18405;SDS011;9329;48.720;9.588;2022-07-18T12:59:54;1.70;;;0.70;;
18405;SDS011;9329;48.720;9.588;2022-07-18T13:02:23;1.50;;;0.80;;
18405;SDS011;9329;48.720;9.588;2022-07-18T13:04:50;5.15;;;0.73;;
18405;SDS011;9329;48.720;9.588;2022-07-18T13:07:17;1.42;;;0.70;;
18405;SDS011;9329;48.720;9.588;2022-07-18T13:09:44;2.20;;;0.80;;
18405;SDS011;9329;48.720;9.588;2022-07-18T13:12:11;2.08;;;0.70;;
18405;SDS011;9329;48.720;9.588;2022-07-18T13:14:38;1.50;;;0.70;;
18405;SDS011;9329;48.720;9.588;2022-07-18T13:17:05;1.90;;;0.60;;
18405;SDS011;9329;48.720;9.588;2022-07-18T13:19:34;1.60;;;0.80;;
18405;SDS011;9329;48.720;9.588;2022-07-18T13:22:01;2.35;;;0.70;;
18405;SDS011;9329;48.720;9.588;2022-07-18T13:24:28;2.80;;;0.60;;
18405;SDS011;9329;48.720;9.588;2022-07-18T13:26:55;2.55;;;0.80;;
18405;SDS011;9329;48.720;9.588;2022-07-18T13:29:22;1.35;;;0.57;;
18405;SDS011;9329;48.720;9.588;2022-07-18T13:31:49;2.67;;;0.73;;
18405;SDS011;9329;48.720;9.588;2022-07-18T13:34:17;1.95;;;0.65;;
18405;SDS011;9329;48.720;9.588;2022-07-18T13:36:51;1.77;;;0.63;;
18405;SDS011;9329;48.720;9.588;2022-07-18T13:39:20;1.45;;;0.75;;
18405;SDS011;9329;48.720;9.588;2022-07-18T13:41:48;2.63;;;0.70;;
18405;SDS011;9329;48.720;9.588;2022-07-18T13:44:15;2.03;;;0.80;;
18405;SDS011;9329;48.720;9.588;2022-07-18T13:46:43;3.17;;;0.88;;
18405;SDS011;9329;48.720;9.588;2022-07-18T13:49:10;1.03;;;0.70;;
18405;SDS011;9329;48.720;9.588;2022-07-18T13:51:38;1.20;;;0.70;;
18405;SDS011;9329;48.720;9.588;2022-07-18T13:54:06;2.55;;;0.80;;
18405;SDS011;9329;48.720;9.588;2022-07-18T13:56:33;1.93;;;0.80;;
18405;SDS011;9329;48.720;9.588;2022-07-18T13:59:01;2.75;;;0.80;;
18405;SDS011;9329;48.720;9.588;2022-07-18T14:01:28;1.20;;;0.70;;
18405;SDS011;9329;48.720;9.588;2022-07-18T14:03:55;3.67;;;0.70;;
18405;SDS011;9329;48.720;9.588;2022-07-18T14:06:22;1.27;;;0.60;;
18405;SDS011;9329;48.720;9.588;2022-07-18T14:08:49;2.40;;;0.80;;
18405;SDS011;9329;48.720;9.588;2022-07-18T14:11:18;2.43;;;0.70;;
18405;SDS011;9329;48.720;9.588;2022-07-18T14:13:45;2.05;;;0.70;;
18405;SDS011;9329;48.720;9.588;2022-07-18T14:16:13;1.37;;;0.60;;
18405;SDS011;9329;48.720;9.588;2022-07-18T14:18:40;1.50;;;0.70;;
18405;SDS011;9329;48.720;9.588;2022-07-18T14:21:07;1.60;;;0.70;;
18405;SDS011;9329;48.720;9.588;2022-07-18T14:23:35;2.20;;;0.80;;
18405;SDS011;9329;48.720;9.588;2022-07-18T14:26:02;2.45;;;0.70;;
18405;SDS011;9329;48.720;9.588;2022-07-18T14:28:30;2.78;;;0.70;;
18405;SDS011;9329;48.720;9.588;2022-07-18T14:30:57;2.10;;;0.80;;
18405;SDS011;9329;48.720;9.588;2022-07-18T14:33:25;2.35;;;0.80;;
18405;SDS011;9329;48.720;9.588;2022-07-18T14:35:52;3.10;;;0.77;;
18405;SDS011;9329;48.720;9.588;2022-07-18T14:38:19;5.07;;;0.90;;
18405;SDS011;9329;48.720;9.588;2022-07-18T14:40:46;2.58;;;0.73;;
18405;SDS011;9329;48.720;9.588;2022-07-18T14:43:13;2.20;;;0.70;;
18405;SDS011;9329;48.720;9.588;2022-07-18T14:45:42;3.15;;;0.80;;
18405;SDS011;9329;48.720;9.588;2022-07-18T14:48:09;3.30;;;0.70;;
18405;SDS011;9329;48.720;9.588;2022-07-18T14:50:37;2.92;;;0.60;;
18405;SDS011;9329;48.720;9.588;2022-07-18T14:53:04;3.28;;;0.80;;
18405;SDS011;9329;48.720;9.588;2022-07-18T14:55:31;2.10;;;0.80;;
18405;SDS011;9329;48.720;9.588;2022-07-18T14:57:58;3.20;;;0.90;;
18405;SDS011;9329;48.720;9.588;2022-07-18T15:00:25;1.60;;;0.80;;
18405;SDS011;9329;48.720;9.588;2022-07-18T15:02:54;3.40;;;0.80;;
18405;SDS011;9329;48.720;9.588;2022-07-18T15:05:21;4.00;;;0.88;;
18405;SDS011;9329;48.720;9.588;2022-07-18T15:07:48;2.53;;;0.70;;
18405;SDS011;9329;48.720;9.588;2022-07-18T15:10:15;1.77;;;0.90;;
18405;SDS011;9329;48.720;9.588;2022-07-18T15:12:42;2.33;;;0.93;;
18405;SDS011;9329;48.720;9.588;2022-07-18T15:15:09;2.83;;;0.90;;
18405;SDS011;9329;48.720;9.588;2022-07-18T15:17:36;3.45;;;0.82;;
18405;SDS011;9329;48.720;9.588;2022-07-18T15:20:05;2.35;;;0.88;;
18405;SDS011;9329;48.720;9.588;2022-07-18T15:22:33;2.73;;;1.00;;
18405;SDS011;9329;48.720;9.588;2022-07-18T15:25:00;2.93;;;0.90;;
18405;SDS011;9329;48.720;9.588;2022-07-18T15:27:28;2.73;;;0.90;;
18405;SDS011;9329;48.720;9.588;2022-07-18T15:29:55;3.00;;;1.08;;
18405;SDS011;9329;48.720;9.588;2022-07-18T15:32:23;2.15;;;0.90;;
18405;SDS011;9329;48.720;9.588;2022-07-18T15:34:53;1.90;;;0.90;;
18405;SDS011;9329;48.720;9.588;2022-07-18T15:37:22;2.15;;;0.80;;
18405;SDS011;9329;48.720;9.588;2022-07-18T15:39:49;3.88;;;0.82;;
18405;SDS011;9329;48.720;9.588;2022-07-18T15:42:16;2.63;;;0.90;;
18405;SDS011;9329;48.720;9.588;2022-07-18T15:44:43;4.82;;;3.08;;
18405;SDS011;9329;48.720;9.588;2022-07-18T15:47:10;3.40;;;2.50;;
18405;SDS011;9329;48.720;9.588;2022-07-18T15:49:37;3.05;;;0.98;;
18405;SDS011;9329;48.720;9.588;2022-07-18T15:52:05;4.60;;;1.30;;